createdAt,value
2017-10-23T00:02:00.845Z,7.00
2017-10-23T00:04:29.157Z,7.00
2017-10-23T00:06:56.675Z,6.90
2017-10-23T00:09:31.043Z,7.00
2017-10-23T00:12:05.530Z,7.00
2017-10-23T00:14:33.885Z,7.00
2017-10-23T00:17:06.625Z,7.10
2017-10-23T00:19:35.105Z,7.00
2017-10-23T00:22:02.643Z,7.00
2017-10-23T00:24:30.264Z,7.00
2017-10-23T00:26:57.790Z,7.00
2017-10-23T00:29:26.110Z,7.00
2017-10-23T00:31:53.638Z,7.00
2017-10-23T00:34:22.888Z,6.90
2017-10-23T00:36:50.417Z,7.00
2017-10-23T00:39:17.978Z,6.90
2017-10-23T00:41:48.544Z,7.00
2017-10-23T00:44:18.953Z,6.90
2017-10-23T00:46:48.864Z,7.00
2017-10-23T00:49:17.203Z,7.00
2017-10-23T00:51:44.725Z,7.00
2017-10-23T00:54:12.252Z,7.00
2017-10-23T00:56:40.566Z,7.00
2017-10-23T00:59:08.089Z,7.00
2017-10-23T01:01:36.370Z,6.90
2017-10-23T01:04:03.909Z,6.90
2017-10-23T01:06:31.439Z,6.90
2017-10-23T01:08:58.989Z,6.80
2017-10-23T01:11:26.540Z,6.80
2017-10-23T01:13:54.078Z,6.90
2017-10-23T01:16:21.625Z,6.90
2017-10-23T01:18:49.148Z,6.80
2017-10-23T01:21:16.840Z,6.80
2017-10-23T01:23:44.401Z,6.90
2017-10-23T01:26:12.724Z,6.90
2017-10-23T01:28:41.019Z,6.80
2017-10-23T01:31:09.982Z,6.80
2017-10-23T01:33:37.637Z,6.80
2017-10-23T01:36:05.194Z,6.70
2017-10-23T01:38:32.932Z,6.80
2017-10-23T01:41:00.485Z,6.80
2017-10-23T01:43:28.139Z,6.70
2017-10-23T01:45:55.684Z,6.60
2017-10-23T01:48:23.998Z,6.60
2017-10-23T01:50:51.512Z,6.60
2017-10-23T01:53:19.062Z,6.50
2017-10-23T01:55:47.356Z,6.60
2017-10-23T01:58:15.144Z,6.60
2017-10-23T02:00:42.759Z,6.60
2017-10-23T02:03:10.452Z,6.60
2017-10-23T02:05:38.007Z,6.60
2017-10-23T02:08:06.396Z,6.60
2017-10-23T02:10:34.806Z,6.60
2017-10-23T02:13:02.333Z,6.60
2017-10-23T02:15:29.872Z,6.60
2017-10-23T02:17:57.429Z,6.60
2017-10-23T02:20:25.765Z,6.70
2017-10-23T02:22:53.329Z,6.60
2017-10-23T02:25:23.756Z,6.70
2017-10-23T02:27:52.073Z,6.70
2017-10-23T02:30:20.354Z,6.70
2017-10-23T02:32:48.677Z,6.70
2017-10-23T02:35:16.209Z,6.70
2017-10-23T02:37:43.753Z,6.70
2017-10-23T02:40:12.048Z,6.70
2017-10-23T02:42:39.818Z,6.60
2017-10-23T02:45:07.349Z,6.60
2017-10-23T02:47:36.608Z,6.60
2017-10-23T02:50:04.173Z,6.60
2017-10-23T02:52:31.940Z,6.60
2017-10-23T02:54:59.498Z,6.60
2017-10-23T02:57:27.010Z,6.70
2017-10-23T02:59:54.568Z,6.70
2017-10-23T03:02:22.202Z,6.70
2017-10-23T03:04:49.757Z,6.70
2017-10-23T03:07:18.056Z,6.60
2017-10-23T03:09:45.577Z,6.60
2017-10-23T03:12:13.196Z,6.60
2017-10-23T03:14:40.749Z,6.70
2017-10-23T03:17:08.280Z,6.60
2017-10-23T03:19:36.562Z,6.60
2017-10-23T03:22:04.103Z,6.60
2017-10-23T03:24:32.411Z,6.60
2017-10-23T03:26:59.957Z,6.60
2017-10-23T03:29:27.500Z,6.60
2017-10-23T03:31:55.046Z,6.60
2017-10-23T03:34:22.581Z,6.50
2017-10-23T03:36:50.902Z,6.40
2017-10-23T03:39:18.427Z,6.40
2017-10-23T03:41:45.978Z,6.40
2017-10-23T03:44:13.512Z,6.30
2017-10-23T03:46:41.056Z,6.30
2017-10-23T03:49:09.369Z,6.20
2017-10-23T03:51:36.908Z,6.10
2017-10-23T03:54:04.425Z,6.10
2017-10-23T03:56:31.965Z,6.00
2017-10-23T03:58:59.515Z,6.10
2017-10-23T04:01:27.821Z,6.00
2017-10-23T04:03:55.352Z,6.00
2017-10-23T04:06:22.914Z,6.10
2017-10-23T04:08:50.463Z,6.00
2017-10-23T04:11:18.008Z,6.00
2017-10-23T04:13:45.524Z,6.00
2017-10-23T04:16:13.070Z,5.90
2017-10-23T04:18:40.616Z,6.00
2017-10-23T04:21:08.141Z,5.90
2017-10-23T04:23:36.119Z,5.80
2017-10-23T04:26:04.627Z,5.80
2017-10-23T04:28:33.538Z,5.60
2017-10-23T04:31:01.123Z,5.60
2017-10-23T04:33:30.675Z,5.50
2017-10-23T04:35:58.208Z,5.40
2017-10-23T04:38:25.825Z,5.30
2017-10-23T04:40:54.356Z,5.30
2017-10-23T04:43:23.016Z,5.20
2017-10-23T04:45:51.292Z,5.20
2017-10-23T04:48:21.824Z,5.20
2017-10-23T04:50:49.525Z,5.20
2017-10-23T04:53:17.707Z,5.20
2017-10-23T04:55:45.311Z,5.20
2017-10-23T04:58:14.659Z,5.10
2017-10-23T05:00:42.233Z,5.20
2017-10-23T05:03:09.816Z,5.30
2017-10-23T05:05:38.354Z,5.30
2017-10-23T05:08:05.905Z,5.20
2017-10-23T05:10:33.423Z,5.10
2017-10-23T05:13:00.983Z,5.10
2017-10-23T05:15:28.506Z,5.10
2017-10-23T05:17:56.055Z,5.10
2017-10-23T05:20:23.584Z,5.20
2017-10-23T05:22:51.994Z,5.60
2017-10-23T05:25:19.511Z,5.50
2017-10-23T05:27:47.861Z,5.70
2017-10-23T05:30:15.418Z,5.70
2017-10-23T05:32:42.951Z,5.70
2017-10-23T05:35:10.493Z,5.90
2017-10-23T05:37:38.031Z,6.00
2017-10-23T05:40:06.353Z,6.00
2017-10-23T05:42:33.894Z,6.00
2017-10-23T05:45:01.448Z,6.00
2017-10-23T05:47:28.973Z,5.90
2017-10-23T05:49:56.569Z,5.90
2017-10-23T05:52:24.113Z,5.90
2017-10-23T05:54:52.420Z,6.00
2017-10-23T05:57:20.087Z,6.00
2017-10-23T05:59:47.617Z,6.10
2017-10-23T06:02:15.929Z,6.00
2017-10-23T06:04:43.455Z,6.00
2017-10-23T06:07:11.014Z,6.10
2017-10-23T06:09:39.308Z,6.20
2017-10-23T06:12:06.851Z,6.10
2017-10-23T06:14:34.385Z,6.20
2017-10-23T06:17:01.918Z,6.30
2017-10-23T06:19:29.458Z,6.30
2017-10-23T06:21:56.985Z,6.30
2017-10-23T06:24:25.317Z,6.40
2017-10-23T06:26:52.861Z,6.40
2017-10-23T06:29:20.421Z,6.40
2017-10-23T06:31:47.950Z,6.50
2017-10-23T06:34:15.510Z,6.50
2017-10-23T06:36:43.057Z,6.50
2017-10-23T06:39:11.369Z,6.60
2017-10-23T06:41:38.889Z,6.60
2017-10-23T06:44:07.252Z,6.60
2017-10-23T06:46:34.783Z,6.60
2017-10-23T06:49:02.336Z,6.70
2017-10-23T06:51:29.887Z,6.70
2017-10-23T06:53:57.404Z,6.70
2017-10-23T06:56:25.720Z,6.70
2017-10-23T06:58:53.256Z,6.70
2017-10-23T07:01:20.809Z,6.80
2017-10-23T07:03:49.100Z,6.90
2017-10-23T07:06:16.682Z,6.90
2017-10-23T07:08:44.213Z,7.10
2017-10-23T07:11:11.771Z,7.20
2017-10-23T07:13:40.074Z,7.30
2017-10-23T07:16:07.647Z,7.30
2017-10-23T07:18:35.192Z,7.50
2017-10-23T07:21:02.733Z,7.60
2017-10-23T07:23:30.320Z,7.70
2017-10-23T07:25:57.844Z,7.90
2017-10-23T07:28:26.151Z,7.90
2017-10-23T07:30:53.669Z,7.80
2017-10-23T07:33:21.991Z,8.20
2017-10-23T07:35:49.514Z,8.20
2017-10-23T07:38:17.813Z,8.40
2017-10-23T07:40:45.334Z,8.40
2017-10-23T07:43:13.641Z,8.50
2017-10-23T07:45:41.204Z,8.50
2017-10-23T07:48:08.750Z,8.40
2017-10-23T07:50:37.041Z,8.20
2017-10-23T07:53:04.604Z,8.20
2017-10-23T07:55:32.163Z,8.20
2017-10-23T07:57:59.691Z,8.20
2017-10-23T08:00:28.013Z,8.30
2017-10-23T08:02:55.538Z,8.30
2017-10-23T08:05:23.843Z,8.30
2017-10-23T08:07:51.366Z,8.30
2017-10-23T08:10:19.683Z,8.40
2017-10-23T08:12:47.229Z,8.40
2017-10-23T08:15:14.772Z,8.60
2017-10-23T08:17:43.093Z,8.80
2017-10-23T08:20:10.614Z,8.70
2017-10-23T08:22:38.174Z,8.80
2017-10-23T08:25:06.481Z,9.10
2017-10-23T08:27:34.043Z,9.10
2017-10-23T08:30:01.584Z,9.30
2017-10-23T08:32:29.114Z,9.30
2017-10-23T08:34:57.430Z,9.00
2017-10-23T08:37:24.976Z,9.00
2017-10-23T08:39:52.519Z,9.00
2017-10-23T08:42:20.808Z,9.10
2017-10-23T08:44:48.362Z,9.00
2017-10-23T08:47:16.022Z,9.20
2017-10-23T08:49:44.347Z,9.30
2017-10-23T08:52:11.908Z,9.30
2017-10-23T08:54:39.434Z,9.60
2017-10-23T08:57:06.976Z,10.00
2017-10-23T08:59:35.268Z,10.50
2017-10-23T09:02:04.357Z,10.50
2017-10-23T09:04:32.654Z,10.00
2017-10-23T09:07:00.204Z,10.00
2017-10-23T09:09:27.968Z,10.00
2017-10-23T09:11:55.501Z,9.90
2017-10-23T09:14:23.037Z,10.10
2017-10-23T09:16:50.579Z,10.00
2017-10-23T09:19:18.121Z,10.10
2017-10-23T09:21:45.656Z,10.30
2017-10-23T09:24:13.997Z,10.50
2017-10-23T09:26:41.538Z,10.50
2017-10-23T09:29:09.105Z,11.20
2017-10-23T09:31:36.644Z,12.00
2017-10-23T09:34:04.218Z,12.00
2017-10-23T09:36:31.764Z,12.60
2017-10-23T09:38:59.339Z,12.90
2017-10-23T09:41:26.870Z,12.90
2017-10-23T09:43:54.430Z,13.00
2017-10-23T09:46:21.969Z,13.40
2017-10-23T09:48:50.281Z,13.00
2017-10-23T09:51:17.813Z,13.00
2017-10-23T09:53:45.402Z,12.50
2017-10-23T09:56:12.949Z,12.20
2017-10-23T09:58:40.486Z,11.60
2017-10-23T10:01:08.809Z,11.30
2017-10-23T10:03:36.341Z,11.30
2017-10-23T10:06:03.909Z,11.30
2017-10-23T10:08:31.441Z,11.40
2017-10-23T10:10:59.753Z,11.00
2017-10-23T10:13:27.290Z,11.00
2017-10-23T10:15:54.846Z,11.00
2017-10-23T10:18:22.375Z,11.20
2017-10-23T10:20:49.934Z,11.10
2017-10-23T10:23:17.470Z,11.20
2017-10-23T10:25:45.039Z,11.00
2017-10-23T10:28:12.567Z,10.90
2017-10-23T10:30:40.113Z,11.00
2017-10-23T10:33:07.669Z,11.10
2017-10-23T10:35:35.353Z,11.10
2017-10-23T10:38:02.906Z,11.00
2017-10-23T10:40:30.480Z,11.10
2017-10-23T10:42:58.030Z,11.20
2017-10-23T10:45:25.593Z,11.30
2017-10-23T10:47:53.141Z,11.40
2017-10-23T10:50:20.673Z,11.60
2017-10-23T10:52:48.973Z,11.50
2017-10-23T10:55:16.528Z,11.40
2017-10-23T10:57:44.081Z,11.30
2017-10-23T11:00:11.633Z,11.40
2017-10-23T11:02:39.926Z,11.50
2017-10-23T11:05:07.482Z,11.50
2017-10-23T11:07:35.013Z,11.60
2017-10-23T11:10:02.557Z,11.60
2017-10-23T11:12:31.601Z,11.40
2017-10-23T11:14:59.158Z,11.40
2017-10-23T11:17:26.708Z,11.30
2017-10-23T11:19:55.020Z,11.40
2017-10-23T11:22:22.576Z,11.40
2017-10-23T11:24:50.126Z,11.40
2017-10-23T11:27:17.686Z,11.30
2017-10-23T11:29:45.220Z,11.30
2017-10-23T11:32:12.781Z,11.50
2017-10-23T11:34:41.087Z,11.80
2017-10-23T11:37:08.633Z,11.80
2017-10-23T11:39:36.176Z,11.70
2017-10-23T11:42:04.506Z,11.80
2017-10-23T11:44:32.045Z,11.80
2017-10-23T11:46:59.593Z,12.00
2017-10-23T11:49:27.131Z,12.10
2017-10-23T11:51:55.454Z,13.20
2017-10-23T11:54:23.018Z,13.20
2017-10-23T11:56:50.666Z,13.60
2017-10-23T11:59:18.227Z,13.70
2017-10-23T12:01:45.768Z,13.30
2017-10-23T12:04:13.301Z,13.30
2017-10-23T12:06:41.626Z,13.00
2017-10-23T12:09:09.162Z,13.00
2017-10-23T12:11:36.718Z,13.20
2017-10-23T12:14:04.269Z,13.10
2017-10-23T12:16:32.572Z,12.40
2017-10-23T12:19:00.105Z,12.40
2017-10-23T12:21:28.429Z,11.90
2017-10-23T12:23:55.966Z,11.90
2017-10-23T12:26:23.530Z,12.00
2017-10-23T12:28:51.077Z,12.00
2017-10-23T12:31:18.638Z,12.10
2017-10-23T12:33:46.181Z,11.80
2017-10-23T12:36:14.495Z,12.10
2017-10-23T12:38:42.052Z,12.00
2017-10-23T12:41:09.600Z,12.00
2017-10-23T12:43:37.129Z,11.80
2017-10-23T12:46:05.447Z,11.70
2017-10-23T12:48:32.996Z,11.70
2017-10-23T12:51:00.671Z,11.60
2017-10-23T12:53:28.993Z,11.90
2017-10-23T12:55:56.532Z,11.80
2017-10-23T12:58:24.068Z,12.00
2017-10-23T13:00:52.389Z,12.40
2017-10-23T13:03:19.929Z,12.40
2017-10-23T13:05:47.479Z,12.40
2017-10-23T13:08:15.019Z,12.10
2017-10-23T13:10:43.337Z,11.90
2017-10-23T13:13:10.910Z,11.90
2017-10-23T13:15:38.550Z,11.90
2017-10-23T13:18:06.094Z,11.70
2017-10-23T13:20:33.683Z,11.90
2017-10-23T13:23:01.983Z,12.20
2017-10-23T13:25:29.541Z,12.10
2017-10-23T13:27:57.836Z,12.40
2017-10-23T13:30:25.360Z,12.30
2017-10-23T13:32:52.925Z,12.60
2017-10-23T13:35:20.468Z,12.40
2017-10-23T13:37:48.021Z,12.20
2017-10-23T13:40:15.593Z,11.90
2017-10-23T13:42:43.137Z,11.80
2017-10-23T13:45:10.706Z,11.80
2017-10-23T13:47:38.257Z,11.60
2017-10-23T13:50:05.794Z,11.70
2017-10-23T13:52:33.354Z,11.50
2017-10-23T13:55:01.026Z,11.60
2017-10-23T13:57:28.581Z,11.70
2017-10-23T13:59:56.117Z,11.70
2017-10-23T14:02:23.661Z,11.70
2017-10-23T14:04:51.996Z,11.90
2017-10-23T14:07:19.565Z,11.90
2017-10-23T14:09:47.096Z,11.70
2017-10-23T14:12:14.644Z,11.70
2017-10-23T14:14:42.176Z,11.70
2017-10-23T14:17:10.602Z,11.80
2017-10-23T14:19:38.136Z,11.70
2017-10-23T14:22:05.697Z,11.80
2017-10-23T14:24:33.236Z,11.50
2017-10-23T14:27:00.786Z,11.40
2017-10-23T14:31:55.841Z,11.40
2017-10-23T14:34:23.396Z,11.30
2017-10-23T14:36:51.988Z,11.10
2017-10-23T14:39:20.419Z,11.20
2017-10-23T14:41:47.949Z,11.20
2017-10-23T14:44:16.270Z,10.90
2017-10-23T14:46:43.792Z,10.90
2017-10-23T14:49:11.345Z,10.90
2017-10-23T14:51:38.888Z,10.80
2017-10-23T14:54:07.229Z,11.00
2017-10-23T14:56:34.769Z,11.00
2017-10-23T14:59:02.341Z,10.90
2017-10-23T15:01:29.901Z,10.70
2017-10-23T15:03:57.447Z,10.60
2017-10-23T15:06:25.034Z,10.50
2017-10-23T15:08:52.573Z,10.50
2017-10-23T15:11:20.112Z,10.40
2017-10-23T15:13:47.645Z,10.30
2017-10-23T15:16:15.985Z,10.20
2017-10-23T15:18:43.533Z,10.20
2017-10-23T15:21:11.112Z,10.10
2017-10-23T15:23:38.636Z,10.20
2017-10-23T15:26:06.199Z,10.20
2017-10-23T15:28:33.744Z,10.10
2017-10-23T15:31:01.293Z,10.00
2017-10-23T15:33:29.617Z,10.00
2017-10-23T15:35:58.649Z,10.00
2017-10-23T15:38:26.960Z,9.90
2017-10-23T15:40:54.509Z,9.90
2017-10-23T15:43:22.045Z,9.90
2017-10-23T15:45:49.580Z,9.80
2017-10-23T15:48:17.909Z,9.50
2017-10-23T15:50:45.450Z,9.50
2017-10-23T15:53:13.769Z,9.30
2017-10-23T15:55:41.308Z,9.30
2017-10-23T15:58:08.845Z,9.30
2017-10-23T16:00:37.162Z,9.30
2017-10-23T16:03:04.709Z,9.30
2017-10-23T16:05:32.222Z,9.20
2017-10-23T16:07:59.754Z,9.20
2017-10-23T16:10:28.068Z,9.10
2017-10-23T16:12:56.360Z,9.10
2017-10-23T16:15:23.905Z,9.00
2017-10-23T16:17:52.324Z,9.00
2017-10-23T16:20:19.873Z,9.00
2017-10-23T16:22:47.405Z,9.00
2017-10-23T16:25:14.950Z,9.00
2017-10-23T16:27:42.491Z,9.00
2017-10-23T16:30:10.134Z,9.00
2017-10-23T16:32:37.691Z,8.90
2017-10-23T16:35:05.246Z,8.90
2017-10-23T16:37:32.787Z,9.00
2017-10-23T16:40:00.313Z,8.90
2017-10-23T16:42:27.854Z,8.80
2017-10-23T16:44:56.145Z,8.80
2017-10-23T16:47:23.712Z,8.70
2017-10-23T16:49:51.247Z,8.80
2017-10-23T16:52:18.789Z,8.80
2017-10-23T16:54:46.313Z,8.70
2017-10-23T16:57:13.853Z,8.80
2017-10-23T16:59:42.904Z,8.70
2017-10-23T17:02:10.428Z,8.70
2017-10-23T17:04:37.995Z,8.70
2017-10-23T17:07:06.288Z,8.60
2017-10-23T17:09:34.604Z,8.60
2017-10-23T17:12:14.024Z,8.60
2017-10-23T17:14:41.572Z,8.60
2017-10-23T17:17:09.089Z,8.60
2017-10-23T17:19:36.616Z,8.60
2017-10-23T17:22:04.166Z,8.70
2017-10-23T17:24:31.685Z,8.60
2017-10-23T17:27:00.013Z,8.50
2017-10-23T17:29:27.561Z,8.40
2017-10-23T17:31:55.096Z,8.50
2017-10-23T17:34:22.657Z,8.50
2017-10-23T17:36:50.174Z,8.50
2017-10-23T17:39:17.727Z,8.40
2017-10-23T17:41:45.299Z,8.30
2017-10-23T17:44:12.816Z,8.30
2017-10-23T17:46:40.366Z,8.20
2017-10-23T17:49:07.916Z,8.20
2017-10-23T17:51:35.436Z,8.20
2017-10-23T17:54:03.752Z,8.20
2017-10-23T17:56:31.301Z,8.20
2017-10-23T17:58:58.825Z,8.10
2017-10-23T18:01:26.365Z,8.10
2017-10-23T18:03:53.885Z,8.10
2017-10-23T18:06:21.429Z,8.10
2017-10-23T18:08:49.723Z,8.10
2017-10-23T18:11:17.275Z,8.10
2017-10-23T18:13:44.797Z,8.00
2017-10-23T18:16:12.354Z,8.00
2017-10-23T18:18:39.891Z,8.00
2017-10-23T18:21:07.427Z,8.10
2017-10-23T18:23:35.031Z,8.10
2017-10-23T18:26:02.581Z,8.00
2017-10-23T18:28:30.125Z,8.10
2017-10-23T18:30:57.658Z,8.10
2017-10-23T18:33:25.210Z,8.10
2017-10-23T18:35:52.733Z,8.20
2017-10-23T18:38:20.312Z,8.10
2017-10-23T18:40:48.609Z,8.10
2017-10-23T18:43:16.186Z,8.10
2017-10-23T18:45:43.734Z,8.20
2017-10-23T18:48:11.256Z,8.20
2017-10-23T18:50:38.834Z,8.20
2017-10-23T18:53:07.153Z,8.20
2017-10-23T18:55:34.722Z,8.20
2017-10-23T18:58:02.364Z,8.20
2017-10-23T19:00:29.913Z,8.20
2017-10-23T19:02:57.429Z,8.20
2017-10-23T19:05:24.984Z,8.20
2017-10-23T19:07:52.516Z,8.30
2017-10-23T19:10:20.066Z,8.30
2017-10-23T19:12:47.594Z,8.30
2017-10-23T19:15:15.929Z,8.20
2017-10-23T19:17:43.569Z,8.20
2017-10-23T19:20:11.104Z,8.20
2017-10-23T19:22:38.640Z,8.20
2017-10-23T19:25:06.946Z,8.30
2017-10-23T19:27:34.598Z,8.30
2017-10-23T19:30:02.197Z,8.30
2017-10-23T19:32:29.729Z,8.30
2017-10-23T19:34:57.284Z,8.20
2017-10-23T19:37:24.808Z,8.20
2017-10-23T19:39:52.362Z,8.20
2017-10-23T19:42:20.654Z,8.20
2017-10-23T19:44:48.212Z,8.20
2017-10-23T19:47:15.765Z,8.30
2017-10-23T19:49:44.054Z,8.30
2017-10-23T19:52:11.603Z,8.30
2017-10-23T19:54:39.919Z,8.30
2017-10-23T19:57:08.214Z,8.30
2017-10-23T19:59:35.783Z,8.20
2017-10-23T20:02:04.164Z,8.30
2017-10-23T20:04:31.706Z,8.20
2017-10-23T20:06:59.234Z,8.30
2017-10-23T20:09:26.789Z,8.20
2017-10-23T20:11:54.309Z,8.20
2017-10-23T20:14:21.832Z,8.30
2017-10-23T20:16:49.373Z,8.20
2017-10-23T20:19:16.941Z,8.20
2017-10-23T20:21:44.557Z,8.20
2017-10-23T20:24:12.089Z,8.20
2017-10-23T20:26:39.641Z,8.20
2017-10-23T20:29:07.165Z,8.20
2017-10-23T20:31:35.679Z,8.20
2017-10-23T20:34:03.218Z,8.20
2017-10-23T20:36:30.786Z,8.20
2017-10-23T20:38:58.321Z,8.20
2017-10-23T20:41:25.862Z,8.10
2017-10-23T20:43:54.156Z,8.20
2017-10-23T20:46:21.716Z,8.20
2017-10-23T20:48:50.021Z,8.20
2017-10-23T20:51:17.545Z,8.20
2017-10-23T20:53:45.865Z,8.20
2017-10-23T20:56:13.395Z,8.20
2017-10-23T20:58:40.938Z,8.10
2017-10-23T21:01:09.246Z,8.10
2017-10-23T21:03:36.800Z,8.10
2017-10-23T21:06:04.324Z,8.20
2017-10-23T21:08:32.646Z,8.20
2017-10-23T21:11:00.165Z,8.20
2017-10-23T21:13:28.464Z,8.30
2017-10-23T21:15:56.010Z,8.30
2017-10-23T21:18:24.295Z,8.30
2017-10-23T21:20:51.833Z,8.30
2017-10-23T21:23:19.361Z,8.30
2017-10-23T21:25:46.909Z,8.30
2017-10-23T21:28:14.433Z,8.30
2017-10-23T21:30:41.981Z,8.40
2017-10-23T21:33:10.277Z,8.30
2017-10-23T21:35:37.825Z,8.30
2017-10-23T21:38:06.121Z,8.30
2017-10-23T21:40:33.664Z,8.30
2017-10-23T21:43:01.957Z,8.40
2017-10-23T21:45:29.500Z,8.40
2017-10-23T21:48:12.662Z,8.40
2017-10-23T21:50:40.205Z,8.40
2017-10-23T21:53:07.736Z,8.40
2017-10-23T21:55:36.029Z,8.40
2017-10-23T21:58:03.569Z,8.40
2017-10-23T22:00:31.883Z,8.40
2017-10-23T22:02:59.426Z,8.40
2017-10-23T22:05:26.945Z,8.40
2017-10-23T22:07:54.485Z,8.40
2017-10-23T22:10:22.005Z,8.40
2017-10-23T22:12:49.549Z,8.40
2017-10-23T22:15:17.835Z,8.40
2017-10-23T22:17:45.385Z,8.40
2017-10-23T22:20:13.684Z,8.30
2017-10-23T22:22:41.231Z,8.30
2017-10-23T22:25:08.761Z,8.30
2017-10-23T22:27:36.293Z,8.30
2017-10-23T22:30:03.847Z,8.30
2017-10-23T22:32:31.370Z,8.30
2017-10-23T22:34:58.910Z,8.30
2017-10-23T22:37:27.201Z,8.40
2017-10-23T22:39:54.770Z,8.40
2017-10-23T22:42:22.294Z,8.40
2017-10-23T22:44:49.817Z,8.40
2017-10-23T22:47:17.354Z,8.40
2017-10-23T22:49:44.909Z,8.40
2017-10-23T22:52:12.461Z,8.40
2017-10-23T22:54:41.013Z,8.40
2017-10-23T22:57:08.533Z,8.40
2017-10-23T22:59:36.076Z,8.40
2017-10-23T23:02:03.593Z,8.40
2017-10-23T23:04:31.653Z,8.40
2017-10-23T23:07:00.711Z,8.30
2017-10-23T23:09:28.244Z,8.30
2017-10-23T23:11:55.789Z,8.40
2017-10-23T23:14:24.085Z,8.40
2017-10-23T23:16:51.640Z,8.40
2017-10-23T23:19:19.926Z,8.40
2017-10-23T23:21:48.255Z,8.30
2017-10-23T23:24:15.806Z,8.50
2017-10-23T23:26:43.320Z,8.50
2017-10-23T23:29:10.864Z,8.60
2017-10-23T23:31:39.178Z,8.60
2017-10-23T23:34:06.767Z,8.50
2017-10-23T23:36:35.063Z,8.50
2017-10-23T23:39:02.617Z,8.50
2017-10-23T23:41:30.141Z,8.50
2017-10-23T23:43:57.689Z,8.50
2017-10-23T23:46:25.220Z,8.60
2017-10-23T23:48:55.808Z,8.60
2017-10-23T23:51:24.097Z,8.60
2017-10-23T23:53:51.646Z,8.60
2017-10-23T23:56:19.177Z,8.60
2017-10-23T23:58:46.719Z,8.60
